createdAt,value
2019-01-21T00:01:00.540Z,53.97
2019-01-21T00:03:30.288Z,68.17
2019-01-21T00:05:59.859Z,66.73
2019-01-21T00:08:29.357Z,53.77
2019-01-21T00:10:58.954Z,54.97
2019-01-21T00:13:28.451Z,93.13
2019-01-21T00:15:57.960Z,59.10
2019-01-21T00:18:27.500Z,60.60
2019-01-21T00:20:57.020Z,65.30
2019-01-21T00:23:26.533Z,60.33
2019-01-21T00:25:56.209Z,100.33
2019-01-21T00:28:25.721Z,62.00
2019-01-21T00:30:55.232Z,54.23
2019-01-21T00:33:24.775Z,55.27
2019-01-21T00:35:54.365Z,55.73
2019-01-21T00:38:23.874Z,57.97
2019-01-21T00:40:54.939Z,66.30
2019-01-21T00:43:24.451Z,64.53
2019-01-21T00:45:53.999Z,96.50
2019-01-21T00:48:23.529Z,90.53
2019-01-21T00:50:53.079Z,72.30
2019-01-21T00:53:22.640Z,79.53
2019-01-21T00:55:52.178Z,65.93
2019-01-21T00:58:21.723Z,68.00
2019-01-21T01:00:51.313Z,68.47
2019-01-21T01:03:20.857Z,75.20
2019-01-21T01:05:50.413Z,63.63
2019-01-21T01:08:20.025Z,63.57
2019-01-21T01:10:49.722Z,59.47
2019-01-21T01:13:19.247Z,63.17
2019-01-21T01:15:48.802Z,60.53
2019-01-21T01:18:18.343Z,86.30
2019-01-21T01:20:47.890Z,70.73
2019-01-21T01:23:17.472Z,64.43
2019-01-21T01:25:47.033Z,71.53
2019-01-21T01:28:16.713Z,69.87
2019-01-21T01:30:46.332Z,63.97
2019-01-21T01:33:15.862Z,67.67
2019-01-21T01:35:45.382Z,67.00
2019-01-21T01:38:14.940Z,68.77
2019-01-21T01:40:44.466Z,67.03
2019-01-21T01:43:14.115Z,70.60
2019-01-21T01:45:44.191Z,73.33
2019-01-21T01:48:13.778Z,73.97
2019-01-21T01:50:43.416Z,74.17
2019-01-21T01:53:14.090Z,76.27
2019-01-21T01:55:43.904Z,77.73
2019-01-21T01:58:13.484Z,77.00
2019-01-21T02:00:43.266Z,77.73
2019-01-21T02:03:12.794Z,72.80
2019-01-21T02:05:42.297Z,77.03
2019-01-21T02:08:11.855Z,106.37
2019-01-21T02:10:41.372Z,121.43
2019-01-21T02:13:10.979Z,105.80
2019-01-21T02:15:40.542Z,96.03
2019-01-21T02:18:10.050Z,93.23
2019-01-21T02:20:40.216Z,89.30
2019-01-21T02:23:16.405Z,81.67
2019-01-21T02:25:51.299Z,91.73
2019-01-21T02:29:11.014Z,108.10
2019-01-21T02:32:32.345Z,85.90
2019-01-21T02:35:31.944Z,90.67
2019-01-21T02:38:30.771Z,95.63
2019-01-21T02:41:14.311Z,105.73
2019-01-21T02:44:30.884Z,91.40
2019-01-21T02:47:24.564Z,100.00
2019-01-21T02:50:36.825Z,111.07
2019-01-21T02:53:30.257Z,76.80
2019-01-21T02:56:27.436Z,84.70
2019-01-21T02:59:33.588Z,87.57
2019-01-21T03:02:57.636Z,80.93
2019-01-21T03:06:17.222Z,79.33
2019-01-21T03:09:42.892Z,75.57
2019-01-21T03:13:08.729Z,79.83
2019-01-21T03:16:40.051Z,87.80
2019-01-21T03:19:38.606Z,110.60
2019-01-21T03:22:51.527Z,92.57
2019-01-21T03:26:16.766Z,72.30
2019-01-21T03:29:23.075Z,75.13
2019-01-21T03:32:39.531Z,75.23
2019-01-21T03:35:52.381Z,75.63
2019-01-21T03:38:49.912Z,73.17
2019-01-21T03:41:32.687Z,65.67
2019-01-21T03:44:32.072Z,51.57
2019-01-21T03:47:40.995Z,46.57
2019-01-21T03:50:53.510Z,50.53
2019-01-21T03:53:53.271Z,49.23
2019-01-21T03:56:44.439Z,46.50
2019-01-21T03:59:50.879Z,48.13
2019-01-21T04:02:56.935Z,48.90
2019-01-21T04:05:44.835Z,46.07
2019-01-21T04:08:44.132Z,48.87
2019-01-21T04:11:42.601Z,45.27
2019-01-21T04:15:23.244Z,49.13
2019-01-21T04:18:31.980Z,56.53
2019-01-21T04:21:34.382Z,45.33
2019-01-21T04:25:03.103Z,46.47
2019-01-21T04:27:54.490Z,53.50
2019-01-21T04:30:56.879Z,49.00
2019-01-21T04:34:01.421Z,49.27
2019-01-21T04:37:26.081Z,49.97
2019-01-21T04:40:26.543Z,47.80
2019-01-21T04:43:25.137Z,48.53
2019-01-21T04:46:50.869Z,51.43
2019-01-21T04:50:05.949Z,48.47
2019-01-21T04:53:10.055Z,44.43
2019-01-21T04:56:32.387Z,43.90
2019-01-21T05:00:01.123Z,42.80
2019-01-21T05:03:05.671Z,38.33
2019-01-21T05:06:03.524Z,37.30
2019-01-21T05:09:27.719Z,40.50
2019-01-21T05:12:43.910Z,39.67
2019-01-21T05:16:03.586Z,40.90
2019-01-21T05:19:14.036Z,39.13
2019-01-21T05:22:02.299Z,35.33
2019-01-21T05:25:11.129Z,37.97
2019-01-21T05:28:10.057Z,38.20
2019-01-21T05:31:08.887Z,38.27
2019-01-21T05:34:14.056Z,38.63
2019-01-21T05:37:08.874Z,39.13
2019-01-21T05:40:15.340Z,41.23
2019-01-21T05:43:09.445Z,41.80
2019-01-21T05:46:05.757Z,42.97
2019-01-21T05:49:30.346Z,47.10
2019-01-21T05:53:04.799Z,36.97
2019-01-21T05:56:30.037Z,51.90
2019-01-21T05:59:51.466Z,57.50
2019-01-21T06:03:07.832Z,61.17
2019-01-21T06:06:11.368Z,44.63
2019-01-21T06:09:08.944Z,43.27
2019-01-21T06:12:18.672Z,40.83
2019-01-21T06:15:32.103Z,37.40
2019-01-21T06:18:26.069Z,44.07
2019-01-21T06:21:33.654Z,39.77
2019-01-21T06:24:56.073Z,48.80
2019-01-21T06:28:01.742Z,47.87
2019-01-21T06:31:11.152Z,47.43
2019-01-21T06:34:32.766Z,71.87
2019-01-21T06:37:43.061Z,58.60
2019-01-21T06:41:01.181Z,53.27
2019-01-21T06:44:01.093Z,45.20
2019-01-21T06:47:08.650Z,43.23
2019-01-21T06:50:01.838Z,40.30
2019-01-21T06:53:01.196Z,41.90
2019-01-21T06:56:10.346Z,42.40
2019-01-21T06:59:17.849Z,42.70
2019-01-21T07:02:11.950Z,42.10
2019-01-21T07:05:18.242Z,41.07
2019-01-21T07:08:36.543Z,40.40
2019-01-21T07:12:01.754Z,42.90
2019-01-21T07:15:18.566Z,44.60
2019-01-21T07:18:26.058Z,43.63
2019-01-21T07:21:31.349Z,45.40
2019-01-21T07:24:40.625Z,41.10
2019-01-21T07:27:47.386Z,42.90
2019-01-21T07:30:47.494Z,41.77
2019-01-21T07:33:46.020Z,39.33
2019-01-21T07:36:59.095Z,37.07
2019-01-21T07:40:21.250Z,32.00
2019-01-21T07:43:26.275Z,34.10
2019-01-21T07:46:17.100Z,38.03
2019-01-21T07:49:24.202Z,36.03
2019-01-21T07:52:29.085Z,33.07
2019-01-21T07:55:38.779Z,31.77
2019-01-21T07:58:55.180Z,27.40
2019-01-21T08:01:45.473Z,27.13
2019-01-21T08:04:35.276Z,25.63
2019-01-21T08:07:30.523Z,26.30
2019-01-21T08:10:35.633Z,24.30
2019-01-21T08:13:25.329Z,24.07
2019-01-21T08:16:31.646Z,22.87
2019-01-21T08:19:39.305Z,23.50
2019-01-21T08:22:59.053Z,19.73
2019-01-21T08:26:21.580Z,18.93
2019-01-21T08:29:08.712Z,20.70
2019-01-21T08:32:10.009Z,18.70
2019-01-21T08:35:07.167Z,17.07
2019-01-21T08:38:31.268Z,16.40
2019-01-21T08:41:38.926Z,16.43
2019-01-21T08:45:04.547Z,16.00
2019-01-21T08:48:26.894Z,16.60
2019-01-21T08:51:37.731Z,16.30
2019-01-21T08:54:47.850Z,17.93
2019-01-21T08:57:49.164Z,16.77
2019-01-21T09:00:42.262Z,18.03
2019-01-21T09:03:49.027Z,18.00
2019-01-21T09:07:00.553Z,18.43
2019-01-21T09:10:16.042Z,18.93
2019-01-21T09:13:19.888Z,18.73
2019-01-21T09:16:08.091Z,19.20
2019-01-21T09:18:53.733Z,17.70
2019-01-21T09:22:01.312Z,16.57
2019-01-21T09:25:09.623Z,16.07
2019-01-21T09:28:09.699Z,15.53
2019-01-21T09:31:44.189Z,17.97
2019-01-21T09:34:41.141Z,18.43
2019-01-21T09:37:46.256Z,18.23
2019-01-21T09:41:04.213Z,17.50
2019-01-21T09:44:13.602Z,17.87
2019-01-21T09:46:53.496Z,16.17
2019-01-21T09:49:21.156Z,17.57
2019-01-21T09:52:11.891Z,15.97
2019-01-21T09:54:42.444Z,16.37
2019-01-21T09:57:27.994Z,17.80
2019-01-21T10:00:01.591Z,16.57
2019-01-21T10:02:42.461Z,16.20
2019-01-21T10:05:14.193Z,14.10
2019-01-21T10:08:06.265Z,14.63
2019-01-21T10:11:25.814Z,15.77
2019-01-21T10:14:23.134Z,14.20
2019-01-21T10:17:27.886Z,14.10
2019-01-21T10:20:46.978Z,13.83
2019-01-21T10:23:54.642Z,11.87
2019-01-21T10:26:59.658Z,12.23
2019-01-21T10:29:51.336Z,11.50
2019-01-21T10:33:13.563Z,11.30
2019-01-21T10:36:18.538Z,11.60
2019-01-21T10:39:26.409Z,12.13
2019-01-21T10:42:55.174Z,11.37
2019-01-21T10:45:34.799Z,12.23
2019-01-21T10:48:14.723Z,11.47
2019-01-21T10:51:06.922Z,10.10
2019-01-21T10:53:59.339Z,10.50
2019-01-21T10:56:44.651Z,10.00
2019-01-21T10:59:36.292Z,10.43
2019-01-21T11:02:47.673Z,11.00
2019-01-21T11:05:39.142Z,9.97
2019-01-21T11:08:37.732Z,10.40
2019-01-21T11:12:10.769Z,10.03
2019-01-21T11:15:13.112Z,9.67
2019-01-21T11:18:23.291Z,10.70
2019-01-21T11:21:23.032Z,10.50
2019-01-21T11:24:16.969Z,9.73
2019-01-21T11:27:20.102Z,8.83
2019-01-21T11:30:19.236Z,9.63
2019-01-21T11:33:19.399Z,10.00
2019-01-21T11:36:15.284Z,9.90
2019-01-21T11:39:08.659Z,8.87
2019-01-21T11:41:53.706Z,9.53
2019-01-21T11:45:23.325Z,10.30
2019-01-21T11:48:33.257Z,10.73
2019-01-21T11:51:29.794Z,10.50
2019-01-21T11:54:08.327Z,11.90
2019-01-21T11:57:11.636Z,9.40
2019-01-21T11:59:54.274Z,9.63
2019-01-21T12:03:03.457Z,10.60
2019-01-21T12:06:07.193Z,11.90
2019-01-21T12:09:07.536Z,11.50
2019-01-21T12:11:54.631Z,10.00
2019-01-21T12:14:54.683Z,8.37
2019-01-21T12:18:10.366Z,10.63
2019-01-21T12:21:08.016Z,9.27
2019-01-21T12:24:18.363Z,10.30
2019-01-21T12:27:25.875Z,11.07
2019-01-21T12:30:35.233Z,9.60
2019-01-21T12:33:51.708Z,10.93
2019-01-21T12:36:36.610Z,8.33
2019-01-21T12:39:45.577Z,10.07
2019-01-21T12:43:08.851Z,11.37
2019-01-21T12:46:09.589Z,8.67
2019-01-21T12:49:25.683Z,11.27
2019-01-21T12:52:23.847Z,11.43
2019-01-21T12:55:21.295Z,11.53
2019-01-21T12:58:28.225Z,11.57
2019-01-21T13:01:37.504Z,11.53
2019-01-21T13:04:48.440Z,10.57
2019-01-21T13:07:39.138Z,10.37
2019-01-21T13:10:55.555Z,10.53
2019-01-21T13:14:17.736Z,10.20
2019-01-21T13:16:53.233Z,9.17
2019-01-21T13:20:09.683Z,10.17
2019-01-21T13:23:30.111Z,11.90
2019-01-21T13:26:28.653Z,13.73
2019-01-21T13:29:25.282Z,13.03
2019-01-21T13:32:19.863Z,11.27
2019-01-21T13:35:29.358Z,13.77
2019-01-21T13:38:29.913Z,8.53
2019-01-21T13:41:37.209Z,9.67
2019-01-21T13:44:44.583Z,10.97
2019-01-21T13:48:03.732Z,10.47
2019-01-21T13:51:09.806Z,9.30
2019-01-21T13:54:13.716Z,9.83
2019-01-21T13:57:34.612Z,12.77
2019-01-21T14:00:41.922Z,10.50
2019-01-21T14:03:23.281Z,10.43
2019-01-21T14:06:52.395Z,10.70
2019-01-21T14:09:53.519Z,10.27
2019-01-21T14:13:06.729Z,11.20
2019-01-21T14:15:48.359Z,10.67
2019-01-21T14:18:46.085Z,11.90
2019-01-21T14:22:11.324Z,11.93
2019-01-21T14:25:25.326Z,11.50
2019-01-21T14:28:32.236Z,11.70
2019-01-21T14:31:32.284Z,11.20
2019-01-21T14:34:44.435Z,9.83
2019-01-21T14:37:52.040Z,11.73
2019-01-21T14:41:07.686Z,11.03
2019-01-21T14:44:27.085Z,11.27
2019-01-21T14:47:19.321Z,10.53
2019-01-21T14:49:58.911Z,14.13
2019-01-21T14:53:07.632Z,14.70
2019-01-21T14:56:01.961Z,14.27
2019-01-21T14:58:56.377Z,14.40
2019-01-21T15:02:02.494Z,13.03
2019-01-21T15:04:52.624Z,10.43
2019-01-21T15:08:03.939Z,12.90
2019-01-21T15:11:24.593Z,13.27
2019-01-21T15:14:24.617Z,15.17
2019-01-21T15:17:50.209Z,13.07
2019-01-21T15:20:32.539Z,13.60
2019-01-21T15:23:34.125Z,12.93
2019-01-21T15:26:44.291Z,12.47
2019-01-21T15:30:08.240Z,13.57
2019-01-21T15:33:28.948Z,12.80
2019-01-21T15:36:30.606Z,12.90
2019-01-21T15:39:37.616Z,12.73
2019-01-21T15:42:35.435Z,14.33
2019-01-21T15:45:56.591Z,14.93
2019-01-21T15:49:05.597Z,14.27
2019-01-21T15:52:25.001Z,11.07
2019-01-21T15:55:40.672Z,11.60
2019-01-21T15:58:57.856Z,12.13
2019-01-21T16:02:01.523Z,14.47
2019-01-21T16:05:04.533Z,14.73
2019-01-21T16:08:18.653Z,16.27
2019-01-21T16:11:11.319Z,13.83
2019-01-21T16:13:45.925Z,15.47
2019-01-21T16:16:43.227Z,15.10
2019-01-21T16:19:42.284Z,15.67
2019-01-21T16:22:47.584Z,15.27
2019-01-21T16:25:37.781Z,13.53
2019-01-21T16:28:23.436Z,14.93
2019-01-21T16:31:14.540Z,14.13
2019-01-21T16:34:30.676Z,14.90
2019-01-21T16:37:17.450Z,12.50
2019-01-21T16:40:40.552Z,14.90
2019-01-21T16:43:10.114Z,15.47
2019-01-21T16:45:41.066Z,15.10
2019-01-21T16:48:10.749Z,14.77
2019-01-21T16:50:40.318Z,14.63
2019-01-21T16:53:11.083Z,14.10
2019-01-21T16:55:40.591Z,15.53
2019-01-21T16:58:10.099Z,16.37
2019-01-21T17:00:39.664Z,15.00
2019-01-21T17:03:09.215Z,17.23
2019-01-21T17:05:38.802Z,15.03
2019-01-21T17:08:08.361Z,16.43
2019-01-21T17:10:39.249Z,14.33
2019-01-21T17:13:08.908Z,17.17
2019-01-21T17:15:38.423Z,14.90
2019-01-21T17:18:09.360Z,17.13
2019-01-21T17:20:38.870Z,16.00
2019-01-21T17:23:08.380Z,15.50
2019-01-21T17:25:39.160Z,14.60
2019-01-21T17:28:08.671Z,15.10
2019-01-21T17:30:38.180Z,15.73
2019-01-21T17:33:07.735Z,15.20
2019-01-21T17:35:37.401Z,15.27
2019-01-21T17:38:06.948Z,15.10
2019-01-21T17:40:37.753Z,16.60
2019-01-21T17:43:07.331Z,17.30
2019-01-21T17:45:36.823Z,16.83
2019-01-21T17:48:06.482Z,15.53
2019-01-21T17:50:37.313Z,15.93
2019-01-21T17:53:06.863Z,15.73
2019-01-21T17:55:36.464Z,15.77
2019-01-21T17:58:06.047Z,16.70
2019-01-21T18:00:35.545Z,17.13
2019-01-21T18:03:05.210Z,16.77
2019-01-21T18:05:34.876Z,17.67
2019-01-21T18:08:04.497Z,19.73
2019-01-21T18:10:34.047Z,19.93
2019-01-21T18:13:03.571Z,19.67
2019-01-21T18:15:33.086Z,20.63
2019-01-21T18:18:02.650Z,17.20
2019-01-21T18:20:32.161Z,17.40
2019-01-21T18:23:01.872Z,17.47
2019-01-21T18:25:31.433Z,18.00
2019-01-21T18:28:00.939Z,18.23
2019-01-21T18:30:30.960Z,18.97
2019-01-21T18:33:00.528Z,17.77
2019-01-21T18:35:32.438Z,16.90
2019-01-21T18:38:03.313Z,16.10
2019-01-21T18:40:33.337Z,16.13
2019-01-21T18:43:02.850Z,15.80
2019-01-21T18:45:32.631Z,18.13
2019-01-21T18:48:02.139Z,19.20
2019-01-21T18:50:31.825Z,14.70
2019-01-21T18:53:01.439Z,13.30
2019-01-21T18:55:30.995Z,12.00
2019-01-21T18:58:01.836Z,11.23
2019-01-21T19:00:31.352Z,11.47
2019-01-21T19:03:00.968Z,10.50
2019-01-21T19:05:30.558Z,10.40
2019-01-21T19:08:00.065Z,9.87
2019-01-21T19:10:29.580Z,10.50
2019-01-21T19:12:59.164Z,10.43
2019-01-21T19:15:34.886Z,9.23
2019-01-21T19:18:05.739Z,9.03
2019-01-21T19:20:35.284Z,10.03
2019-01-21T19:23:04.852Z,11.63
2019-01-21T19:25:35.711Z,9.83
2019-01-21T19:28:06.645Z,9.97
2019-01-21T19:30:36.174Z,9.13
2019-01-21T19:33:05.841Z,9.03
2019-01-21T19:35:39.622Z,8.60
2019-01-21T19:38:09.157Z,10.03
2019-01-21T19:40:39.978Z,8.97
2019-01-21T19:43:09.537Z,7.73
2019-01-21T19:45:39.060Z,8.90
2019-01-21T19:48:09.890Z,9.30
2019-01-21T19:50:39.387Z,8.67
2019-01-21T19:53:08.933Z,7.80
2019-01-21T19:55:40.957Z,8.67
2019-01-21T19:58:11.422Z,9.30
2019-01-21T20:00:40.952Z,8.13
2019-01-21T20:03:11.855Z,7.50
2019-01-21T20:05:41.448Z,7.73
2019-01-21T20:08:10.993Z,8.07
2019-01-21T20:10:40.521Z,7.97
2019-01-21T20:13:10.149Z,7.47
2019-01-21T20:15:39.713Z,7.97
2019-01-21T20:18:09.314Z,8.20
2019-01-21T20:20:40.986Z,8.47
2019-01-21T20:23:10.587Z,7.73
2019-01-21T20:25:40.112Z,8.50
2019-01-21T20:28:11.217Z,7.63
2019-01-21T20:30:40.781Z,7.33
2019-01-21T20:33:10.321Z,9.00
2019-01-21T20:35:39.908Z,7.97
2019-01-21T20:38:09.429Z,7.30
2019-01-21T20:40:38.933Z,8.13
2019-01-21T20:43:09.691Z,7.17
2019-01-21T20:45:39.258Z,7.97
2019-01-21T20:48:09.994Z,8.07
2019-01-21T20:50:39.587Z,8.20
2019-01-21T20:53:09.102Z,8.80
2019-01-21T20:55:38.632Z,8.40
2019-01-21T20:58:08.297Z,8.07
2019-01-21T21:00:37.907Z,8.47
2019-01-21T21:03:07.410Z,7.93
2019-01-21T21:05:36.968Z,8.90
2019-01-21T21:08:06.541Z,9.07
2019-01-21T21:10:36.120Z,8.30
2019-01-21T21:13:05.724Z,8.27
2019-01-21T21:15:36.558Z,7.93
2019-01-21T21:18:06.185Z,9.03
2019-01-21T21:20:35.720Z,7.60
2019-01-21T21:23:05.213Z,8.67
2019-01-21T21:25:34.720Z,7.27
2019-01-21T21:28:05.233Z,9.07
2019-01-21T21:30:34.979Z,8.97
2019-01-21T21:33:04.967Z,8.73
2019-01-21T21:35:34.460Z,9.03
2019-01-21T21:38:05.299Z,9.10
2019-01-21T21:40:34.802Z,9.37
2019-01-21T21:43:04.454Z,9.70
2019-01-21T21:45:34.047Z,8.50
2019-01-21T21:48:03.546Z,8.10
2019-01-21T21:50:33.885Z,7.83
2019-01-21T21:53:03.393Z,8.87
2019-01-21T21:55:32.908Z,9.23
2019-01-21T21:58:02.570Z,8.37
2019-01-21T22:00:32.177Z,9.53
2019-01-21T22:03:01.768Z,8.50
2019-01-21T22:05:31.395Z,7.57
2019-01-21T22:08:00.944Z,7.83
2019-01-21T22:10:31.385Z,9.77
2019-01-21T22:13:00.965Z,10.00
2019-01-21T22:15:30.587Z,9.50
2019-01-21T22:18:00.159Z,9.27
2019-01-21T22:20:29.656Z,9.60
2019-01-21T22:22:59.203Z,8.67
2019-01-21T22:25:28.720Z,9.87
2019-01-21T22:27:58.258Z,9.30
2019-01-21T22:30:28.956Z,9.07
2019-01-21T22:32:59.960Z,9.47
2019-01-21T22:35:29.847Z,8.83
2019-01-21T22:37:59.358Z,9.50
2019-01-21T22:40:29.172Z,9.97
2019-01-21T22:42:58.676Z,9.47
2019-01-21T22:45:28.196Z,10.10
2019-01-21T22:47:58.175Z,10.73
2019-01-21T22:50:27.856Z,9.40
2019-01-21T22:52:58.796Z,10.63
2019-01-21T22:55:28.303Z,10.43
2019-01-21T22:57:57.807Z,11.07
2019-01-21T23:00:49.962Z,10.97
2019-01-21T23:03:19.531Z,10.80
2019-01-21T23:05:49.148Z,10.40
2019-01-21T23:08:18.710Z,10.60
2019-01-21T23:10:48.238Z,8.70
2019-01-21T23:13:17.752Z,11.13
2019-01-21T23:15:47.308Z,10.80
2019-01-21T23:18:16.832Z,11.57
2019-01-21T23:20:46.321Z,11.63
2019-01-21T23:23:15.875Z,11.23
2019-01-21T23:25:45.408Z,10.03
2019-01-21T23:28:14.970Z,10.70
2019-01-21T23:30:44.464Z,12.20
2019-01-21T23:33:13.981Z,11.43
2019-01-21T23:35:43.583Z,11.80
2019-01-21T23:38:13.107Z,11.70
2019-01-21T23:40:42.611Z,11.37
2019-01-21T23:43:12.177Z,12.83
2019-01-21T23:45:41.685Z,12.20
2019-01-21T23:48:11.304Z,11.83
2019-01-21T23:50:41.018Z,12.70
2019-01-21T23:53:10.605Z,12.70
2019-01-21T23:55:40.124Z,13.53
2019-01-21T23:58:09.676Z,12.63
